createdAt,value
2022-08-16T00:01:57.090Z,2.33
2022-08-16T00:04:28.998Z,2.17
2022-08-16T00:06:57.773Z,2.22
2022-08-16T00:09:26.152Z,2.45
2022-08-16T00:11:56.017Z,2.38
2022-08-16T00:14:31.567Z,2.10
2022-08-16T00:17:15.759Z,2.50
2022-08-16T00:19:46.877Z,2.17
2022-08-16T00:22:17.577Z,2.22
2022-08-16T00:24:51.439Z,2.33
2022-08-16T00:27:19.926Z,2.17
2022-08-16T00:30:08.324Z,2.42
2022-08-16T00:32:45.655Z,2.42
2022-08-16T00:35:16.577Z,3.00
2022-08-16T00:37:57.783Z,2.25
2022-08-16T00:40:33.982Z,2.20
2022-08-16T00:43:12.138Z,2.33
2022-08-16T00:46:00.648Z,2.47
2022-08-16T00:48:43.966Z,2.35
2022-08-16T00:51:16.213Z,2.75
2022-08-16T00:53:46.703Z,2.60
2022-08-16T00:56:56.390Z,2.95
2022-08-16T00:59:09.603Z,2.33
2022-08-16T01:01:40.292Z,2.28
2022-08-16T01:04:29.049Z,2.65
2022-08-16T01:07:01.652Z,2.70
2022-08-16T01:09:33.141Z,2.55
2022-08-16T01:12:04.334Z,2.63
2022-08-16T01:14:44.169Z,2.63
2022-08-16T01:17:19.835Z,2.83
2022-08-16T01:19:57.357Z,2.60
2022-08-16T01:22:48.221Z,2.92
2022-08-16T01:25:24.387Z,2.40
2022-08-16T01:28:07.101Z,2.53
2022-08-16T01:30:50.037Z,2.70
2022-08-16T01:33:20.585Z,2.58
2022-08-16T01:35:56.467Z,2.55
2022-08-16T01:38:31.130Z,3.13
2022-08-16T01:41:06.889Z,2.70
2022-08-16T01:43:38.346Z,2.60
2022-08-16T01:46:29.801Z,2.65
2022-08-16T01:49:05.617Z,2.72
2022-08-16T01:51:34.330Z,2.58
2022-08-16T01:54:09.165Z,2.70
2022-08-16T01:56:51.096Z,2.90
2022-08-16T01:59:23.006Z,3.00
2022-08-16T02:01:59.509Z,2.50
2022-08-16T02:04:49.626Z,2.90
2022-08-16T02:07:23.667Z,2.92
2022-08-16T02:09:57.550Z,2.70
2022-08-16T02:12:50.626Z,2.78
2022-08-16T02:15:24.798Z,3.05
2022-08-16T02:17:54.429Z,2.90
2022-08-16T02:20:26.142Z,3.40
2022-08-16T02:22:55.421Z,3.28
2022-08-16T02:25:24.557Z,2.97
2022-08-16T02:27:54.630Z,2.95
2022-08-16T02:30:35.856Z,3.10
2022-08-16T02:33:06.890Z,3.20
2022-08-16T02:35:54.231Z,3.08
2022-08-16T02:38:26.484Z,3.20
2022-08-16T02:40:55.405Z,3.30
2022-08-16T02:43:27.478Z,3.15
2022-08-16T02:45:58.870Z,3.13
2022-08-16T02:48:30.844Z,3.22
2022-08-16T02:51:10.322Z,3.53
2022-08-16T02:53:43.817Z,3.28
2022-08-16T02:56:15.526Z,3.03
2022-08-16T02:58:47.984Z,3.30
2022-08-16T03:01:24.735Z,3.38
2022-08-16T03:04:41.058Z,3.38
2022-08-16T03:06:56.854Z,3.88
2022-08-16T03:09:51.410Z,3.10
2022-08-16T03:12:30.284Z,3.13
2022-08-16T03:15:08.024Z,3.35
2022-08-16T03:17:36.910Z,3.47
2022-08-16T03:20:21.775Z,3.63
2022-08-16T03:23:01.724Z,3.42
2022-08-16T03:25:40.693Z,3.67
2022-08-16T03:28:11.718Z,3.58
2022-08-16T03:30:42.053Z,3.67
2022-08-16T03:33:12.702Z,3.60
2022-08-16T03:35:47.778Z,4.00
2022-08-16T03:38:34.686Z,3.55
2022-08-16T03:41:24.493Z,3.60
2022-08-16T03:43:56.941Z,3.67
2022-08-16T03:46:44.542Z,3.67
2022-08-16T03:49:18.025Z,4.07
2022-08-16T03:51:49.150Z,3.58
2022-08-16T03:54:23.393Z,4.03
2022-08-16T03:56:56.653Z,3.78
2022-08-16T03:59:29.808Z,3.85
2022-08-16T04:02:04.231Z,4.03
2022-08-16T04:04:41.210Z,4.00
2022-08-16T04:07:09.703Z,3.92
2022-08-16T04:09:41.810Z,3.90
2022-08-16T04:12:53.149Z,3.65
2022-08-16T04:15:02.289Z,4.10
2022-08-16T04:17:33.191Z,3.63
2022-08-16T04:20:08.674Z,3.95
2022-08-16T04:22:56.458Z,3.90
2022-08-16T04:25:27.292Z,3.83
2022-08-16T04:27:56.063Z,3.25
2022-08-16T04:30:34.772Z,4.22
2022-08-16T04:33:06.792Z,3.85
2022-08-16T04:35:37.216Z,3.47
2022-08-16T04:38:11.135Z,3.85
2022-08-16T04:40:50.218Z,4.25
2022-08-16T04:43:19.699Z,3.90
2022-08-16T04:45:48.608Z,4.32
2022-08-16T04:48:32.876Z,4.20
2022-08-16T04:51:07.831Z,4.80
2022-08-16T04:53:45.295Z,4.10
2022-08-16T04:56:16.397Z,4.38
2022-08-16T04:58:46.785Z,4.35
2022-08-16T05:01:18.454Z,4.95
2022-08-16T05:03:59.716Z,4.50
2022-08-16T05:06:44.645Z,4.00
2022-08-16T05:09:22.923Z,3.80
2022-08-16T05:11:52.831Z,4.15
2022-08-16T05:14:46.096Z,4.13
2022-08-16T05:17:18.211Z,5.07
2022-08-16T05:19:57.429Z,4.03
2022-08-16T05:22:30.486Z,5.68
2022-08-16T05:25:09.153Z,5.78
2022-08-16T05:27:42.794Z,5.93
2022-08-16T05:30:34.516Z,5.97
2022-08-16T05:33:03.761Z,5.90
2022-08-16T05:35:34.176Z,6.38
2022-08-16T05:38:33.456Z,5.68
2022-08-16T05:41:04.399Z,5.88
2022-08-16T05:43:46.466Z,5.72
2022-08-16T05:46:30.331Z,6.00
2022-08-16T05:49:08.602Z,6.53
2022-08-16T05:51:40.838Z,5.95
2022-08-16T05:54:14.042Z,6.65
2022-08-16T05:56:45.845Z,5.63
2022-08-16T05:59:19.701Z,5.78
2022-08-16T06:01:51.984Z,6.00
2022-08-16T06:04:35.347Z,6.40
2022-08-16T06:07:09.642Z,6.43
2022-08-16T06:10:04.797Z,5.43
2022-08-16T06:12:35.514Z,5.93
2022-08-16T06:15:10.498Z,5.93
2022-08-16T06:17:44.478Z,5.90
2022-08-16T06:20:25.587Z,6.47
2022-08-16T06:23:11.622Z,6.55
2022-08-16T06:25:55.973Z,5.93
2022-08-16T06:28:36.216Z,5.68
2022-08-16T06:31:12.065Z,6.18
2022-08-16T06:33:44.910Z,5.60
2022-08-16T06:36:16.503Z,6.00
2022-08-16T06:38:56.958Z,6.32
2022-08-16T06:41:43.564Z,6.13
2022-08-16T06:44:24.623Z,5.95
2022-08-16T06:47:02.905Z,6.53
2022-08-16T06:49:31.721Z,5.78
2022-08-16T06:52:03.183Z,5.82
2022-08-16T06:54:38.076Z,5.93
2022-08-16T06:57:11.661Z,6.30
2022-08-16T06:59:52.831Z,6.72
2022-08-16T07:02:32.821Z,6.40
2022-08-16T07:05:04.508Z,6.53
2022-08-16T07:07:50.858Z,5.82
2022-08-16T07:10:25.788Z,6.82
2022-08-16T07:13:04.422Z,5.65
2022-08-16T07:15:50.464Z,6.35
2022-08-16T07:18:21.823Z,7.07
2022-08-16T07:20:53.531Z,5.75
2022-08-16T07:23:38.723Z,6.07
2022-08-16T07:26:24.778Z,5.93
2022-08-16T07:28:54.794Z,6.80
2022-08-16T07:31:24.713Z,6.60
2022-08-16T07:34:09.996Z,6.32
2022-08-16T07:36:39.550Z,6.45
2022-08-16T07:39:09.597Z,6.53
2022-08-16T07:41:44.256Z,6.18
2022-08-16T07:44:16.412Z,6.70
2022-08-16T07:46:45.631Z,6.55
2022-08-16T07:49:20.485Z,6.47
2022-08-16T07:51:48.978Z,6.38
2022-08-16T07:54:32.011Z,6.82
2022-08-16T07:57:05.315Z,6.65
2022-08-16T07:59:45.722Z,6.03
2022-08-16T08:02:19.829Z,6.80
2022-08-16T08:04:52.396Z,5.90
2022-08-16T08:07:20.952Z,5.90
2022-08-16T08:09:51.479Z,5.70
2022-08-16T08:12:32.576Z,6.30
2022-08-16T08:15:09.724Z,5.72
2022-08-16T08:17:42.842Z,5.15
2022-08-16T08:20:26.096Z,5.68
2022-08-16T08:23:00.591Z,5.18
2022-08-16T08:25:54.468Z,5.65
2022-08-16T08:28:21.631Z,5.30
2022-08-16T08:31:01.553Z,5.95
2022-08-16T08:33:36.057Z,5.95
2022-08-16T08:36:08.358Z,5.50
2022-08-16T08:38:45.684Z,5.65
2022-08-16T08:41:19.754Z,5.47
2022-08-16T08:43:57.927Z,5.28
2022-08-16T08:46:27.812Z,5.03
2022-08-16T08:49:07.797Z,5.20
2022-08-16T08:51:41.494Z,5.68
2022-08-16T08:54:18.821Z,6.13
2022-08-16T08:56:53.408Z,5.20
2022-08-16T08:59:40.648Z,4.68
2022-08-16T09:02:11.625Z,5.05
2022-08-16T09:04:47.958Z,5.18
2022-08-16T09:07:22.057Z,5.80
2022-08-16T09:10:06.170Z,4.68
2022-08-16T09:12:38.227Z,3.75
2022-08-16T09:15:15.069Z,3.90
2022-08-16T09:17:51.675Z,4.28
2022-08-16T09:20:25.562Z,5.00
2022-08-16T09:22:54.874Z,4.15
2022-08-16T09:25:33.862Z,4.30
2022-08-16T09:28:08.993Z,4.30
2022-08-16T09:30:44.946Z,4.40
2022-08-16T09:33:19.828Z,4.50
2022-08-16T09:35:53.611Z,3.83
2022-08-16T09:38:32.456Z,3.50
2022-08-16T09:41:02.526Z,4.38
2022-08-16T09:43:53.484Z,4.13
2022-08-16T09:46:48.513Z,4.50
2022-08-16T09:49:09.282Z,3.92
2022-08-16T09:51:40.617Z,4.70
2022-08-16T09:54:10.684Z,4.45
2022-08-16T09:56:52.591Z,4.90
2022-08-16T09:59:23.940Z,4.70
2022-08-16T10:01:55.567Z,4.93
2022-08-16T10:04:29.679Z,4.80
2022-08-16T10:07:01.638Z,4.60
2022-08-16T10:09:45.267Z,4.43
2022-08-16T10:12:42.716Z,4.50
2022-08-16T10:15:15.656Z,4.90
2022-08-16T10:17:59.928Z,5.13
2022-08-16T10:20:32.420Z,4.55
2022-08-16T10:23:07.102Z,3.92
2022-08-16T10:27:20.520Z,4.28
2022-08-16T10:28:32.287Z,4.10
2022-08-16T10:31:11.932Z,4.22
2022-08-16T10:33:46.711Z,4.20
2022-08-16T10:36:39.437Z,3.85
2022-08-16T10:39:05.085Z,3.92
2022-08-16T10:41:37.039Z,3.70
2022-08-16T10:44:09.647Z,4.32
2022-08-16T10:46:40.797Z,4.57
2022-08-16T10:49:12.868Z,4.15
2022-08-16T10:52:03.239Z,3.90
2022-08-16T10:54:58.662Z,3.97
2022-08-16T10:57:24.464Z,3.70
2022-08-16T10:59:57.782Z,4.05
2022-08-16T11:02:58.247Z,3.78
2022-08-16T11:05:18.312Z,3.67
2022-08-16T11:07:52.382Z,3.65
2022-08-16T11:19:06.220Z,3.88
2022-08-16T11:24:39.461Z,3.20
2022-08-16T11:27:32.733Z,3.10
2022-08-16T11:29:58.433Z,3.28
2022-08-16T11:32:32.530Z,3.53
2022-08-16T11:35:13.838Z,3.42
2022-08-16T11:40:40.844Z,3.17
2022-08-16T11:43:16.976Z,3.60
2022-08-16T11:45:54.148Z,3.00
2022-08-16T11:48:23.854Z,3.45
2022-08-16T11:50:52.553Z,3.42
2022-08-16T11:53:23.705Z,3.35
2022-08-16T11:55:55.084Z,3.58
2022-08-16T11:58:25.318Z,3.42
2022-08-16T12:00:56.049Z,2.97
2022-08-16T12:03:34.769Z,3.28
2022-08-16T12:06:11.096Z,3.92
2022-08-16T12:08:57.519Z,3.70
2022-08-16T12:11:31.575Z,4.00
2022-08-16T12:14:00.542Z,3.50
2022-08-16T12:16:31.419Z,3.38
2022-08-16T12:19:03.118Z,3.20
2022-08-16T12:21:35.860Z,2.83
2022-08-16T12:24:23.909Z,3.35
2022-08-16T12:26:52.382Z,3.28
2022-08-16T12:29:20.783Z,3.22
2022-08-16T12:32:01.134Z,3.40
2022-08-16T12:34:47.982Z,3.30
2022-08-16T12:37:21.806Z,3.35
2022-08-16T12:39:56.689Z,3.17
2022-08-16T12:42:52.501Z,3.40
2022-08-16T12:45:16.434Z,3.00
2022-08-16T12:48:29.390Z,3.13
2022-08-16T12:50:50.415Z,2.88
2022-08-16T12:53:20.528Z,2.85
2022-08-16T12:55:51.115Z,2.80
2022-08-16T12:58:48.762Z,2.78
2022-08-16T13:01:11.276Z,2.80
2022-08-16T13:03:40.961Z,2.80
2022-08-16T13:06:09.608Z,3.00
2022-08-16T13:08:40.990Z,2.95
2022-08-16T13:11:10.529Z,2.97
2022-08-16T13:13:38.653Z,3.15
2022-08-16T13:16:15.449Z,3.00
2022-08-16T13:18:52.691Z,2.88
2022-08-16T13:21:24.165Z,2.83
2022-08-16T13:23:55.500Z,2.78
2022-08-16T13:26:26.834Z,3.20
2022-08-16T13:28:55.341Z,3.22
2022-08-16T13:31:23.970Z,3.10
2022-08-16T13:33:54.505Z,3.08
2022-08-16T13:39:17.134Z,2.80
2022-08-16T13:41:53.554Z,2.95
2022-08-16T13:44:48.835Z,2.85
2022-08-16T13:47:10.884Z,2.28
2022-08-16T13:49:43.355Z,2.58
2022-08-16T13:52:12.608Z,2.60
2022-08-16T13:54:41.159Z,2.65
2022-08-16T13:57:11.779Z,2.60
2022-08-16T13:59:40.911Z,2.90
2022-08-16T14:02:11.377Z,2.50
2022-08-16T14:04:42.462Z,2.40
2022-08-16T14:07:24.403Z,2.45
2022-08-16T14:09:55.288Z,2.67
2022-08-16T14:12:27.936Z,2.42
2022-08-16T14:14:57.348Z,2.15
2022-08-16T14:17:26.877Z,2.10
2022-08-16T14:19:59.751Z,2.35
2022-08-16T14:22:35.588Z,2.15
2022-08-16T14:25:16.211Z,2.30
2022-08-16T14:27:46.681Z,2.47
2022-08-16T14:30:19.044Z,2.40
2022-08-16T14:32:51.208Z,2.10
2022-08-16T14:35:29.212Z,2.00
2022-08-16T14:38:06.035Z,1.80
2022-08-16T14:40:35.490Z,1.75
2022-08-16T14:43:07.898Z,1.60
2022-08-16T14:45:36.833Z,1.80
2022-08-16T14:48:05.815Z,1.63
2022-08-16T14:50:35.210Z,2.10
2022-08-16T14:53:08.607Z,2.20
2022-08-16T14:55:41.050Z,2.40
2022-08-16T14:58:19.387Z,1.77
2022-08-16T15:00:50.787Z,2.13
2022-08-16T15:03:21.726Z,2.28
2022-08-16T15:05:53.739Z,1.83
2022-08-16T15:08:36.210Z,2.10
2022-08-16T15:11:05.631Z,1.83
2022-08-16T15:13:35.312Z,1.88
2022-08-16T15:16:04.414Z,2.00
2022-08-16T15:18:33.433Z,2.00
2022-08-16T15:21:02.077Z,2.00
2022-08-16T15:23:33.661Z,1.70
2022-08-16T15:26:04.441Z,2.00
2022-08-16T15:28:38.387Z,1.58
2022-08-16T15:31:09.592Z,1.98
2022-08-16T15:33:43.563Z,2.17
2022-08-16T15:36:18.179Z,2.20
2022-08-16T15:39:03.088Z,2.20
2022-08-16T15:41:58.394Z,1.88
2022-08-16T15:44:40.122Z,1.90
2022-08-16T15:47:17.988Z,2.30
2022-08-16T15:49:51.946Z,1.98
2022-08-16T15:52:30.119Z,1.90
2022-08-16T15:55:13.155Z,2.08
2022-08-16T15:57:49.544Z,2.03
2022-08-16T16:00:22.251Z,2.00
2022-08-16T16:03:01.890Z,2.20
2022-08-16T16:05:30.138Z,1.65
2022-08-16T16:08:12.210Z,2.00
2022-08-16T16:10:43.258Z,2.03
2022-08-16T16:13:12.589Z,1.90
2022-08-16T16:15:46.045Z,1.80
2022-08-16T16:18:16.042Z,2.03
2022-08-16T16:20:54.059Z,1.90
2022-08-16T16:23:24.599Z,1.90
2022-08-16T16:25:54.630Z,2.03
2022-08-16T16:29:06.428Z,1.90
2022-08-16T16:31:17.037Z,1.83
2022-08-16T16:33:50.395Z,2.20
2022-08-16T16:36:24.320Z,2.22
2022-08-16T16:38:56.531Z,2.17
2022-08-16T16:41:28.112Z,2.10
2022-08-16T16:43:58.020Z,2.17
2022-08-16T16:46:42.907Z,1.90
2022-08-16T16:49:14.175Z,2.15
2022-08-16T16:51:44.393Z,2.00
2022-08-16T16:54:13.970Z,2.05
2022-08-16T16:56:56.747Z,2.05
2022-08-16T16:59:28.125Z,2.05
2022-08-16T17:02:41.015Z,2.58
2022-08-16T17:04:48.802Z,2.53
2022-08-16T17:07:17.242Z,2.03
2022-08-16T17:09:47.293Z,1.90
2022-08-16T17:12:25.388Z,2.10
2022-08-16T17:15:05.227Z,1.88
2022-08-16T17:17:38.946Z,2.58
2022-08-16T17:20:25.251Z,2.13
2022-08-16T17:22:56.088Z,2.20
2022-08-16T17:25:27.120Z,2.10
2022-08-16T17:28:58.754Z,2.17
2022-08-16T17:30:54.318Z,2.38
2022-08-16T17:33:24.612Z,2.15
2022-08-16T17:35:55.551Z,2.03
2022-08-16T17:38:38.506Z,2.42
2022-08-16T17:41:09.727Z,2.30
2022-08-16T17:43:44.507Z,2.33
2022-08-16T17:46:50.570Z,2.65
2022-08-16T17:49:04.581Z,2.42
2022-08-16T17:51:34.143Z,2.33
2022-08-16T17:54:03.457Z,2.80
2022-08-16T17:56:31.802Z,2.58
2022-08-16T17:59:01.874Z,2.30
2022-08-16T18:01:30.276Z,2.42
2022-08-16T18:04:06.806Z,3.55
2022-08-16T18:06:39.643Z,2.70
2022-08-16T18:09:09.249Z,2.72
2022-08-16T18:11:41.247Z,3.00
2022-08-16T18:14:11.782Z,2.47
2022-08-16T18:16:41.329Z,2.95
2022-08-16T18:19:09.996Z,2.97
2022-08-16T18:21:56.944Z,3.05
2022-08-16T18:24:28.886Z,2.80
2022-08-16T18:26:57.306Z,2.40
2022-08-16T18:29:45.902Z,3.05
2022-08-16T18:32:14.907Z,2.95
2022-08-16T18:34:50.328Z,2.78
2022-08-16T18:37:19.864Z,2.75
2022-08-16T18:39:48.097Z,2.63
2022-08-16T18:42:16.838Z,2.50
2022-08-16T18:44:45.734Z,2.83
2022-08-16T18:47:13.882Z,3.17
2022-08-16T18:49:42.075Z,3.25
2022-08-16T18:52:25.300Z,3.20
2022-08-16T18:54:58.872Z,3.42
2022-08-16T18:57:31.433Z,3.22
2022-08-16T18:59:59.554Z,3.08
2022-08-16T19:02:57.154Z,3.10
2022-08-16T19:05:21.685Z,3.40
2022-08-16T19:07:50.142Z,3.03
2022-08-16T19:10:20.216Z,3.47
2022-08-16T19:12:48.557Z,3.50
2022-08-16T19:15:21.650Z,3.50
2022-08-16T19:17:50.416Z,3.75
2022-08-16T19:20:20.477Z,3.47
2022-08-16T19:23:04.407Z,3.35
2022-08-16T19:25:48.884Z,3.50
2022-08-16T19:28:48.992Z,3.55
2022-08-16T19:31:14.568Z,3.30
2022-08-16T19:33:47.205Z,2.90
2022-08-16T19:36:31.194Z,2.90
2022-08-16T19:39:04.993Z,3.15
2022-08-16T19:41:36.428Z,3.00
2022-08-16T19:44:06.425Z,3.15
2022-08-16T19:46:34.951Z,3.65
2022-08-16T19:49:03.513Z,3.00
2022-08-16T19:51:31.786Z,2.88
2022-08-16T19:54:00.065Z,2.83
2022-08-16T19:56:28.247Z,2.80
2022-08-16T20:01:46.157Z,2.90
2022-08-16T20:04:14.606Z,2.65
2022-08-16T20:06:43.368Z,2.70
2022-08-16T20:09:15.295Z,3.05
2022-08-16T20:11:45.136Z,2.70
2022-08-16T20:14:24.686Z,2.80
2022-08-16T20:16:56.310Z,3.00
2022-08-16T20:19:24.837Z,2.70
2022-08-16T20:21:53.075Z,2.65
2022-08-16T20:24:36.838Z,3.13
2022-08-16T20:27:07.326Z,2.85
2022-08-16T20:29:38.692Z,2.50
2022-08-16T20:32:09.318Z,2.80
2022-08-16T20:34:37.779Z,2.95
2022-08-16T20:37:07.020Z,3.17
2022-08-16T20:39:35.366Z,2.70
2022-08-16T20:42:03.678Z,2.80
2022-08-16T20:44:34.217Z,2.90
2022-08-16T20:47:03.832Z,2.72
2022-08-16T20:49:32.319Z,2.85
2022-08-16T20:52:00.984Z,2.55
2022-08-16T20:54:30.242Z,2.83
2022-08-16T20:56:58.446Z,2.65
2022-08-16T20:59:26.646Z,2.83
2022-08-16T21:01:54.868Z,2.45
2022-08-16T21:04:28.503Z,2.60
2022-08-16T21:06:59.206Z,2.60
2022-08-16T21:09:31.361Z,2.95
2022-08-16T21:12:01.845Z,3.00
2022-08-16T21:14:33.956Z,2.88
2022-08-16T21:17:02.498Z,2.92
2022-08-16T21:19:32.545Z,2.63
2022-08-16T21:22:11.921Z,2.60
2022-08-16T21:24:40.146Z,2.80
2022-08-16T21:27:08.736Z,2.40
2022-08-16T21:29:42.714Z,2.53
2022-08-16T21:32:13.645Z,2.70
2022-08-16T21:34:43.852Z,2.53
2022-08-16T21:37:15.680Z,2.10
2022-08-16T21:39:44.695Z,2.45
2022-08-16T21:42:15.571Z,2.55
2022-08-16T21:44:44.531Z,3.05
2022-08-16T21:47:12.828Z,3.35
2022-08-16T21:49:41.067Z,3.90
2022-08-16T21:52:26.030Z,2.95
2022-08-16T21:54:57.082Z,2.53
2022-08-16T21:57:25.421Z,2.50
2022-08-16T21:59:55.302Z,2.60
2022-08-16T22:02:26.993Z,2.40
2022-08-16T22:05:05.269Z,2.50
2022-08-16T22:07:34.759Z,2.60
2022-08-16T22:11:05.828Z,2.60
2022-08-16T22:12:51.940Z,2.65
2022-08-16T22:15:25.653Z,2.67
2022-08-16T22:17:55.541Z,2.47
2022-08-16T22:20:25.401Z,2.63
2022-08-16T22:23:06.260Z,2.90
2022-08-16T22:25:34.871Z,2.60
2022-08-16T22:28:04.136Z,2.80
2022-08-16T22:30:32.491Z,2.97
2022-08-16T22:33:01.398Z,2.67
2022-08-16T22:35:29.534Z,2.70
2022-08-16T22:38:46.180Z,2.70
2022-08-16T22:40:48.093Z,2.60
2022-08-16T22:43:17.822Z,2.63
2022-08-16T22:45:46.032Z,2.70
2022-08-16T22:48:17.160Z,2.60
2022-08-16T22:50:45.465Z,2.67
2022-08-16T22:53:16.263Z,2.72
2022-08-16T22:55:44.560Z,2.42
2022-08-16T22:58:13.793Z,2.90
2022-08-16T23:00:44.338Z,2.95
2022-08-16T23:03:16.259Z,2.50
2022-08-16T23:05:50.528Z,2.67
2022-08-16T23:08:38.410Z,3.10
2022-08-16T23:11:10.056Z,2.83
2022-08-16T23:13:50.731Z,2.70
2022-08-16T23:16:25.032Z,2.83
2022-08-16T23:19:03.198Z,3.05
2022-08-16T23:21:31.842Z,2.80
2022-08-16T23:24:01.492Z,2.90
2022-08-16T23:26:44.235Z,3.20
2022-08-16T23:29:23.743Z,2.80
2022-08-16T23:31:56.688Z,3.40
2022-08-16T23:34:25.511Z,3.00
2022-08-16T23:36:53.619Z,3.22
2022-08-16T23:39:23.427Z,3.10
2022-08-16T23:41:51.981Z,3.00
2022-08-16T23:44:55.886Z,2.67
2022-08-16T23:47:09.317Z,2.90
2022-08-16T23:49:59.139Z,3.05
2022-08-16T23:52:38.408Z,3.13
2022-08-16T23:55:16.217Z,3.20
2022-08-16T23:57:46.351Z,2.83
